Time;durP1;ratioP1;P1;durP2;ratioP2;P2;SDS_P1;SDS_P2;PMS_P1;PMS_P2;Temp;Humidity;BMP_temperature;BMP_pressure;BME280_temperature;BME280_humidity;BME280_pressure;Samples;Min_cycle;Max_cycle;Signal;HPM_P1;HPM_P2
2023/11/29 00:02:00;;;;;;;;;;;-1.40;1.00;;;;;;5013922;28;19964;-79
2023/11/29 00:04:35;;;;;;;;;;;-1.40;1.00;;;;;;5017737;28;19917;-79
2023/11/29 00:07:35;;;;;;;;;;;-1.40;1.00;;;;;;5013884;28;20317;-79
2023/11/29 00:10:05;;;;;;;;;;;-1.50;1.00;;;;;;5013817;28;19909;-79
2023/11/29 00:12:30;;;;;;;;;;;-1.50;1.00;;;;;;5014092;28;19913;-72
2023/11/29 00:14:56;;;;;;;;;;;-1.50;1.00;;;;;;5014525;28;20313;-71
2023/11/29 00:17:22;;;;;;;;;;;-1.50;1.00;;;;;;5007501;28;19914;-72
2023/11/29 00:19:47;;;;;;;;;;;-1.50;1.00;;;;;;5017253;28;19914;-72
2023/11/29 00:22:13;;;;;;;;;;;-1.60;1.00;;;;;;5018654;28;19917;-72
2023/11/29 00:24:43;;;;;;;;;;;-1.50;1.00;;;;;;5017107;28;19956;-72
2023/11/29 00:27:35;;;;;;;;;;;-1.50;1.00;;;;;;5018808;28;19920;-79
2023/11/29 00:30:05;;;;;;;;;;;-1.60;1.00;;;;;;5030008;28;19919;-79
2023/11/29 00:32:35;;;;;;;;;;;-1.60;1.00;;;;;;5029485;28;20423;-79
2023/11/29 00:38:05;;;;;;;;;;;-1.70;1.00;;;;;;5017002;28;19921;-79
2023/11/29 00:41:05;;;;;;;;;;;-1.70;1.00;;;;;;5017387;28;19909;-79
2023/11/29 00:47:01;;;;;;;;;;;-1.80;1.00;;;;;;5013596;28;19917;-79
2023/11/29 00:52:30;;;;;;;;;;;;;;;;;;5021861;28;19924;-79
2023/11/29 00:55:29;;;;;;;;;;;-1.80;1.00;;;;;;5016844;28;19909;-79
2023/11/29 00:57:54;;;;;;;;;;;-1.80;1.00;;;;;;5019569;28;19913;-72
2023/11/29 01:00:21;;;;;;;;;;;-1.80;1.00;;;;;;5026653;28;19921;-72
2023/11/29 01:02:47;;;;;;;;;;;-1.80;1.00;;;;;;5024680;28;19918;-72
2023/11/29 01:05:12;;;;;;;;;;;-1.80;1.00;;;;;;5025840;28;19916;-72
2023/11/29 01:07:38;;;;;;;;;;;-1.80;1.00;;;;;;5028744;28;20448;-71
2023/11/29 01:10:04;;;;;;;;;;;;;;;;;;5017661;28;20004;-72
2023/11/29 01:15:32;;;;;;;;;;;-1.90;1.00;;;;;;5032497;28;19959;-79
2023/11/29 01:24:06;;;;;;;;;;;-1.80;1.00;;;;;;5015821;28;19920;-79
2023/11/29 01:32:33;;;;;;;;;;;-2.00;1.00;;;;;;5026482;28;20280;-79
2023/11/29 01:44:08;;;;;;;;;;;-2.00;1.00;;;;;;5015626;28;19956;-72
2023/11/29 01:46:34;;;;;;;;;;;-2.10;1.00;;;;;;5022492;28;19960;-72
2023/11/29 01:49:00;;;;;;;;;;;-2.00;1.00;;;;;;5017099;28;19914;-72
2023/11/29 01:51:30;;;;;;;;;;;;;;;;;;5015714;28;19924;-72
2023/11/29 01:53:56;;;;;;;;;;;;;;;;;;5007028;28;19968;-72
2023/11/29 01:56:21;;;;;;;;;;;-2.10;1.00;;;;;;5015775;28;19913;-72
2023/11/29 01:58:47;;;;;;;;;;;-2.20;1.00;;;;;;5016946;28;19917;-72
2023/11/29 02:01:14;;;;;;;;;;;-2.20;1.00;;;;;;5016393;28;19913;-72
2023/11/29 02:03:40;;;;;;;;;;;-2.30;1.00;;;;;;5015218;28;19917;-72
2023/11/29 02:06:06;;;;;;;;;;;-2.20;1.00;;;;;;5015306;28;19921;-72
2023/11/29 02:08:33;;;;;;;;;;;-2.20;1.00;;;;;;5015409;28;19909;-72
2023/11/29 02:10:59;;;;;;;;;;;;;;;;;;5015148;28;20067;-72
2023/11/29 02:13:29;;;;;;;;;;;-2.20;1.00;;;;;;5013823;28;19914;-72
2023/11/29 02:15:54;;;;;;;;;;;-2.20;1.00;;;;;;5015667;28;19924;-72
2023/11/29 02:18:20;;;;;;;;;;;;;;;;;;5014997;28;19917;-71
2023/11/29 02:20:46;;;;;;;;;;;-2.10;1.00;;;;;;5015210;28;19933;-72
2023/11/29 02:23:20;;;;;;;;;;;-2.00;1.00;;;;;;5012811;28;20008;-72
2023/11/29 02:25:45;;;;;;;;;;;-2.00;1.00;;;;;;4995843;28;19956;-72
2023/11/29 02:28:11;;;;;;;;;;;-2.00;1.00;;;;;;5019479;28;19944;-80
2023/11/29 02:33:45;;;;;;;;;;;-2.00;1.00;;;;;;5025008;28;19920;-80
2023/11/29 02:36:11;;;;;;;;;;;-1.90;1.00;;;;;;5030240;28;19967;-80
2023/11/29 02:38:36;;;;;;;;;;;-1.80;1.00;;;;;;5024758;28;19910;-80
2023/11/29 02:41:05;;;;;;;;;;;-1.90;1.00;;;;;;5018241;28;19999;-80
2023/11/29 02:43:31;;;;;;;;;;;-1.80;1.00;;;;;;5015215;28;19913;-72
2023/11/29 02:45:59;;;;;;;;;;;-1.70;1.00;;;;;;5014227;28;20289;-72
2023/11/29 02:48:25;;;;;;;;;;;-1.70;1.00;;;;;;5014663;28;19914;-72
2023/11/29 02:50:50;;;;;;;;;;;-1.70;1.00;;;;;;5017594;28;19917;-72
2023/11/29 02:53:16;;;;;;;;;;;-1.60;1.00;;;;;;5023053;28;19956;-72
2023/11/29 02:55:41;;;;;;;;;;;-1.60;1.00;;;;;;5024350;28;20036;-72
2023/11/29 03:07:16;;;;;;;;;;;-1.50;1.00;;;;;;5027454;28;20283;-80
2023/11/29 03:09:47;;;;;;;;;;;-1.50;1.00;;;;;;5020344;28;19914;-80
2023/11/29 03:12:17;;;;;;;;;;;-1.50;1.00;;;;;;5015842;28;19936;-80
2023/11/29 03:15:05;;;;;;;;;;;-1.50;1.00;;;;;;5022105;28;19913;-80
2023/11/29 03:17:53;;;;;;;;;;;-1.60;1.00;;;;;;5014248;28;20300;-80
2023/11/29 03:23:21;;;;;;;;;;;-1.60;1.00;;;;;;5014217;28;19976;-81
2023/11/29 03:28:49;;;;;;;;;;;-1.60;1.00;;;;;;5002864;28;19920;-72
2023/11/29 03:31:15;;;;;;;;;;;-1.60;1.00;;;;;;5019318;28;19914;-72
2023/11/29 03:33:47;;;;;;;;;;;;;;;;;;5014223;28;20357;-72
2023/11/29 03:36:17;;;;;;;;;;;-1.70;1.00;;;;;;5026467;28;20396;-72
2023/11/29 03:38:43;;;;;;;;;;;-1.70;1.00;;;;;;5022362;28;19920;-71
2023/11/29 03:41:09;;;;;;;;;;;;;;;;;;5017264;28;20000;-72
2023/11/29 03:43:35;;;;;;;;;;;;;;;;;;5014734;28;20310;-72
2023/11/29 03:46:01;;;;;;;;;;;;;;;;;;5017036;28;20337;-72
2023/11/29 03:48:35;;;;;;;;;;;;;;;;;;5024680;28;19952;-71
2023/11/29 03:51:01;;;;;;;;;;;;;;;;;;5014715;28;19918;-71
2023/11/29 03:53:26;;;;;;;;;;;-1.50;1.00;;;;;;5017798;28;19997;-72
2023/11/29 03:55:52;;;;;;;;;;;-1.50;1.00;;;;;;5017322;28;20000;-71
2023/11/29 03:58:18;;;;;;;;;;;-1.50;1.00;;;;;;5017787;28;19916;-72
2023/11/29 04:00:43;;;;;;;;;;;-1.40;1.00;;;;;;5018100;28;19914;-71
2023/11/29 04:03:09;;;;;;;;;;;-1.40;1.00;;;;;;5017521;28;19949;-71
2023/11/29 04:05:34;;;;;;;;;;;-1.40;1.00;;;;;;5017349;28;19917;-71
2023/11/29 04:08:01;;;;;;;;;;;-1.40;1.00;;;;;;5017696;28;19916;-72
2023/11/29 04:10:29;;;;;;;;;;;-1.40;1.00;;;;;;5027579;28;20334;-72
2023/11/29 04:12:55;;;;;;;;;;;-1.30;1.00;;;;;;5033042;28;19944;-72
2023/11/29 04:15:23;;;;;;;;;;;-1.30;1.00;;;;;;5017680;28;20022;-71
2023/11/29 04:17:53;;;;;;;;;;;-1.30;1.00;;;;;;5017205;28;19959;-71
2023/11/29 04:20:19;;;;;;;;;;;-1.20;1.00;;;;;;5029573;28;19910;-71
2023/11/29 04:22:47;;;;;;;;;;;-1.20;1.00;;;;;;5018488;28;20111;-72
2023/11/29 04:25:13;;;;;;;;;;;-1.20;1.00;;;;;;5012217;28;20013;-72
2023/11/29 04:27:39;;;;;;;;;;;-1.10;1.00;;;;;;5016915;28;20381;-72
2023/11/29 04:30:05;;;;;;;;;;;-1.10;1.00;;;;;;5017404;28;20045;-71
2023/11/29 04:32:30;;;;;;;;;;;-1.00;1.00;;;;;;5016785;28;19914;-71
2023/11/29 04:34:56;;;;;;;;;;;-0.90;1.00;;;;;;5022019;28;19920;-71
2023/11/29 04:37:23;;;;;;;;;;;-0.80;1.00;;;;;;5016277;28;19909;-71
2023/11/29 04:39:48;;;;;;;;;;;-0.80;1.00;;;;;;5017165;28;19909;-71
2023/11/29 04:42:14;;;;;;;;;;;-0.70;1.00;;;;;;5018711;28;20092;-71
2023/11/29 04:44:40;;;;;;;;;;;-0.80;1.00;;;;;;5014641;28;19913;-72
2023/11/29 04:47:05;;;;;;;;;;;-0.80;1.00;;;;;;5018759;28;19917;-71
2023/11/29 04:49:31;;;;;;;;;;;-0.80;1.00;;;;;;5017394;28;19913;-71
2023/11/29 04:51:57;;;;;;;;;;;-0.70;1.00;;;;;;5024044;28;19960;-71
2023/11/29 04:54:23;;;;;;;;;;;-0.70;1.00;;;;;;5016410;28;19913;-71
2023/11/29 04:56:49;;;;;;;;;;;-0.60;1.00;;;;;;5019793;28;19958;-71
2023/11/29 04:59:14;;;;;;;;;;;-0.60;1.00;;;;;;5021906;28;19957;-72
2023/11/29 05:01:40;;;;;;;;;;;-0.60;1.00;;;;;;5004944;28;19914;-72
2023/11/29 05:04:06;;;;;;;;;;;-0.50;1.00;;;;;;5013755;28;19940;-71
2023/11/29 05:06:31;;;;;;;;;;;-0.40;1.00;;;;;;5009490;28;19956;-72
2023/11/29 05:09:17;;;;;;;;;;;-0.40;1.00;;;;;;5017116;28;19913;-72
2023/11/29 05:11:43;;;;;;;;;;;-0.40;1.00;;;;;;5016718;28;19916;-71
2023/11/29 05:14:11;;;;;;;;;;;-0.40;1.00;;;;;;5017273;28;20353;-77
2023/11/29 05:16:41;;;;;;;;;;;-0.30;1.00;;;;;;5015078;28;19956;-71
2023/11/29 05:19:07;;;;;;;;;;;-0.30;1.00;;;;;;5016314;28;19913;-71
2023/11/29 05:21:35;;;;;;;;;;;-0.20;1.00;;;;;;5022973;28;20295;-72
2023/11/29 05:24:01;;;;;;;;;;;-0.20;1.00;;;;;;5015096;28;19914;-71
2023/11/29 05:26:27;;;;;;;;;;;-0.10;1.00;;;;;;5010997;28;19918;-71
2023/11/29 05:28:52;;;;;;;;;;;-0.10;1.00;;;;;;5018246;28;20459;-71
2023/11/29 05:31:23;;;;;;;;;;;0.00;1.00;;;;;;5020030;28;20324;-71
2023/11/29 05:33:49;;;;;;;;;;;0.10;1.00;;;;;;5015999;28;20008;-71
2023/11/29 05:36:19;;;;;;;;;;;0.20;1.00;;;;;;5015954;28;19913;-74
2023/11/29 05:38:47;;;;;;;;;;;0.20;1.00;;;;;;5016411;28;19909;-71
2023/11/29 05:41:13;;;;;;;;;;;;;;;;;;5020272;28;19916;-71
2023/11/29 05:43:59;;;;;;;;;;;0.30;1.00;;;;;;5015644;28;19909;-76
2023/11/29 05:49:09;;;;;;;;;;;0.40;1.00;;;;;;5008938;28;19920;-80
2023/11/29 05:54:37;;;;;;;;;;;0.40;1.00;;;;;;5025684;28;19967;-79
2023/11/29 05:57:03;;;;;;;;;;;0.40;1.00;;;;;;5010394;28;19909;-79
2023/11/29 05:59:29;;;;;;;;;;;0.50;1.00;;;;;;5008482;28;19917;-79
2023/11/29 06:01:55;;;;;;;;;;;0.60;1.00;;;;;;5014019;28;19924;-71
2023/11/29 06:04:21;;;;;;;;;;;0.70;1.00;;;;;;5013596;28;20074;-72
2023/11/29 06:06:47;;;;;;;;;;;0.60;1.00;;;;;;5015777;28;20428;-72
2023/11/29 06:09:14;;;;;;;;;;;0.60;1.00;;;;;;5014590;28;19910;-72
2023/11/29 06:11:40;;;;;;;;;;;0.70;1.00;;;;;;5014330;28;19910;-72
2023/11/29 06:14:06;;;;;;;;;;;0.80;1.00;;;;;;5012039;28;19916;-72
2023/11/29 06:19:35;;;;;;;;;;;0.90;1.00;;;;;;5021227;28;19919;-78
2023/11/29 06:25:23;;;;;;;;;;;0.90;1.00;;;;;;5009082;28;19917;-79
2023/11/29 06:27:50;;;;;;;;;;;0.90;1.00;;;;;;5017183;28;19909;-79
2023/11/29 06:30:17;;;;;;;;;;;;;;;;;;5014925;28;20288;-72
2023/11/29 06:32:43;;;;;;;;;;;1.00;1.00;;;;;;5014136;28;19910;-72
2023/11/29 06:35:12;;;;;;;;;;;1.00;1.00;;;;;;5032072;28;19914;-72
2023/11/29 06:37:42;;;;;;;;;;;1.00;1.00;;;;;;5014005;28;19917;-71
2023/11/29 06:40:10;;;;;;;;;;;1.00;1.00;;;;;;5013737;28;19913;-71
2023/11/29 06:42:37;;;;;;;;;;;1.10;1.00;;;;;;5013817;28;19920;-72
2023/11/29 06:45:02;;;;;;;;;;;1.10;1.00;;;;;;5013890;28;20427;-78
2023/11/29 06:50:42;;;;;;;;;;;1.00;1.00;;;;;;5009212;28;20001;-78
2023/11/29 06:59:16;;;;;;;;;;;1.10;1.00;;;;;;5012447;28;20394;-78
2023/11/29 07:01:42;;;;;;;;;;;1.10;1.00;;;;;;5012971;28;19922;-72
2023/11/29 07:04:08;;;;;;;;;;;1.10;1.00;;;;;;5012846;28;19999;-73
2023/11/29 07:06:34;;;;;;;;;;;1.00;1.00;;;;;;5008863;28;19936;-72
2023/11/29 07:08:59;;;;;;;;;;;1.00;1.00;;;;;;5012895;28;20332;-72
2023/11/29 07:11:25;;;;;;;;;;;1.10;1.00;;;;;;5012887;28;19917;-72
2023/11/29 07:13:51;;;;;;;;;;;1.20;1.00;;;;;;5011818;28;19961;-72
2023/11/29 07:16:17;;;;;;;;;;;1.20;1.00;;;;;;5023484;28;19937;-71
2023/11/29 07:18:43;;;;;;;;;;;1.20;1.00;;;;;;5023078;28;19909;-72
2023/11/29 07:21:08;;;;;;;;;;;1.30;1.00;;;;;;5014346;28;20465;-72
2023/11/29 07:23:34;;;;;;;;;;;1.50;1.00;;;;;;5013766;28;19916;-72
2023/11/29 07:26:00;;;;;;;;;;;1.50;1.00;;;;;;5002840;28;19910;-72
2023/11/29 07:28:26;;;;;;;;;;;1.60;1.00;;;;;;5013690;28;19918;-72
2023/11/29 07:33:56;;;;;;;;;;;1.60;1.00;;;;;;4994788;28;19957;-78
2023/11/29 07:36:29;;;;;;;;;;;1.60;1.00;;;;;;5009045;28;19932;-78
2023/11/29 07:38:55;;;;;;;;;;;1.70;1.00;;;;;;5006075;28;19914;-78
2023/11/29 07:41:29;;;;;;;;;;;1.60;1.00;;;;;;5007158;28;19996;-79
2023/11/29 07:44:05;;;;;;;;;;;1.70;1.00;;;;;;5003597;28;19913;-79
2023/11/29 07:46:31;;;;;;;;;;;1.80;1.00;;;;;;5014255;28;19963;-72
2023/11/29 07:48:56;;;;;;;;;;;1.70;1.00;;;;;;5015038;28;19914;-72
2023/11/29 07:51:24;;;;;;;;;;;1.70;1.00;;;;;;5013000;28;19928;-71
2023/11/29 07:53:50;;;;;;;;;;;1.70;1.00;;;;;;5006631;28;20000;-72
2023/11/29 07:56:16;;;;;;;;;;;1.80;1.00;;;;;;5013533;28;19955;-72
2023/11/29 07:58:41;;;;;;;;;;;1.80;1.00;;;;;;5014514;28;19910;-72
2023/11/29 08:01:29;;;;;;;;;;;1.80;1.00;;;;;;5009813;28;20071;-79
2023/11/29 08:04:11;;;;;;;;;;;1.70;1.00;;;;;;5009631;28;19924;-79
2023/11/29 08:06:37;;;;;;;;;;;1.80;1.00;;;;;;5013967;28;20257;-79
2023/11/29 08:09:05;;;;;;;;;;;1.90;1.00;;;;;;5001439;28;19916;-79
2023/11/29 08:11:44;;;;;;;;;;;2.00;1.00;;;;;;5001625;28;19917;-79
2023/11/29 08:14:17;;;;;;;;;;;1.90;1.00;;;;;;5012289;28;19913;-79
2023/11/29 08:16:42;;;;;;;;;;;1.80;1.00;;;;;;5013900;28;19910;-71
2023/11/29 08:19:08;;;;;;;;;;;1.80;1.00;;;;;;5013008;28;19941;-72
2023/11/29 08:21:35;;;;;;;;;;;1.80;1.00;;;;;;5013024;28;19921;-72
2023/11/29 08:24:01;;;;;;;;;;;2.00;1.00;;;;;;5011673;28;20439;-72
2023/11/29 08:26:27;;;;;;;;;;;2.00;1.00;;;;;;5013228;28;19913;-72
2023/11/29 08:28:53;;;;;;;;;;;;;;;;;;5017518;28;19909;-71
2023/11/29 08:31:35;;;;;;;;;;;2.10;1.00;;;;;;5018977;28;19930;-78
2023/11/29 08:37:04;;;;;;;;;;;;;;;;;;5013363;28;20396;-79
2023/11/29 08:46:05;;;;;;;;;;;2.20;1.00;;;;;;5016865;28;19941;-79
2023/11/29 09:07:07;;;;;;;;;;;2.70;1.00;;;;;;4997342;28;20007;-79
2023/11/29 09:15:38;;;;;;;;;;;2.50;1.00;;;;;;5013026;28;20339;-79
2023/11/29 09:18:04;;;;;;;;;;;2.50;1.00;;;;;;5025752;28;19910;-72
2023/11/29 09:20:30;;;;;;;;;;;2.70;1.00;;;;;;5019299;28;19964;-72
2023/11/29 09:22:55;;;;;;;;;;;2.50;1.00;;;;;;5025896;28;19963;-72
2023/11/29 09:25:23;;;;;;;;;;;2.50;1.00;;;;;;5015324;28;19918;-71
2023/11/29 09:27:49;;;;;;;;;;;2.60;1.00;;;;;;5025247;28;20262;-72
2023/11/29 09:30:15;;;;;;;;;;;2.60;1.00;;;;;;5017290;28;19980;-72
2023/11/29 09:32:40;;;;;;;;;;;2.50;1.00;;;;;;5026213;28;19956;-79
2023/11/29 09:35:42;;;;;;;;;;;2.60;1.00;;;;;;5015982;28;19952;-79
2023/11/29 09:41:11;;;;;;;;;;;;;;;;;;5015803;28;19955;-79
2023/11/29 09:47:07;;;;;;;;;;;2.60;1.00;;;;;;5009681;28;20348;-74
2023/11/29 09:49:32;;;;;;;;;;;2.70;1.00;;;;;;5010472;28;19940;-87
2023/11/29 09:58:35;;;;;;;;;;;3.00;1.00;;;;;;5015791;28;19917;-80
2023/11/29 10:04:04;;;;;;;;;;;;;;;;;;5020868;28;19971;-72
2023/11/29 10:06:30;;;;;;;;;;;3.10;1.00;;;;;;5029410;28;19917;-72
2023/11/29 10:08:56;;;;;;;;;;;;;;;;;;5017133;28;19971;-71
2023/11/29 10:11:25;;;;;;;;;;;3.00;1.00;;;;;;5017213;28;19913;-72
2023/11/29 10:13:51;;;;;;;;;;;3.00;1.00;;;;;;5018788;28;19921;-72
2023/11/29 10:16:20;;;;;;;;;;;2.90;1.00;;;;;;5018990;28;19959;-72
2023/11/29 10:19:02;;;;;;;;;;;2.80;1.00;;;;;;5018698;28;19918;-77
2023/11/29 10:21:48;;;;;;;;;;;;;;;;;;5008192;28;19913;-78
2023/11/29 10:33:11;;;;;;;;;;;2.70;1.00;;;;;;5006337;28;19925;-77
2023/11/29 10:35:37;;;;;;;;;;;2.90;1.00;;;;;;5030764;28;19909;-74
2023/11/29 10:38:09;;;;;;;;;;;2.90;1.00;;;;;;5017048;28;20258;-74
2023/11/29 10:40:59;;;;;;;;;;;2.90;1.00;;;;;;5019181;28;20000;-76
2023/11/29 10:43:30;;;;;;;;;;;2.80;1.00;;;;;;5027533;28;20054;-75
2023/11/29 10:46:02;;;;;;;;;;;2.90;1.00;;;;;;5028263;28;20007;-73
2023/11/29 10:48:53;;;;;;;;;;;2.90;1.00;;;;;;5028019;28;19924;-74
2023/11/29 10:51:19;;;;;;;;;;;2.90;1.00;;;;;;5007642;28;19930;-72
2023/11/29 10:53:53;;;;;;;;;;;3.00;1.00;;;;;;5014325;28;19909;-71
2023/11/29 10:56:19;;;;;;;;;;;3.10;1.00;;;;;;5014084;28;20261;-72
2023/11/29 10:59:19;;;;;;;;;;;3.20;1.00;;;;;;5014077;28;19910;-72
2023/11/29 11:01:45;;;;;;;;;;;;;;;;;;4989523;28;19953;-72
2023/11/29 11:04:11;;;;;;;;;;;3.40;1.00;;;;;;4974177;28;19957;-72
2023/11/29 11:06:39;;;;;;;;;;;;;;;;;;4972135;28;19972;-72
2023/11/29 11:09:26;;;;;;;;;;;3.70;1.00;;;;;;4982738;28;20365;-74
2023/11/29 11:11:51;;;;;;;;;;;4.00;1.00;;;;;;4932353;29;19921;-72
2023/11/29 11:14:20;;;;;;;;;;;3.70;1.00;;;;;;4934054;29;19915;-72
2023/11/29 11:17:09;;;;;;;;;;;3.80;1.00;;;;;;4932432;29;19998;-72
2023/11/29 11:20:06;;;;;;;;;;;3.90;1.00;;;;;;4936440;29;20329;-78
2023/11/29 11:22:42;;;;;;;;;;;4.10;1.00;;;;;;4939592;29;19978;-78
2023/11/29 11:25:11;;;;;;;;;;;4.40;1.00;;;;;;4940847;29;20330;-78
2023/11/29 11:27:48;;;;;;;;;;;4.50;1.00;;;;;;4931142;29;19925;-78
2023/11/29 11:30:35;;;;;;;;;;;4.50;1.00;;;;;;4944380;29;19914;-78
2023/11/29 11:33:01;;;;;;;;;;;4.30;1.00;;;;;;4940416;29;19921;-78
2023/11/29 11:35:34;;;;;;;;;;;4.40;1.00;;;;;;4943668;29;19919;-78
2023/11/29 11:47:07;;;;;;;;;;;3.70;1.00;;;;;;4953439;29;20623;-79
2023/11/29 11:49:53;;;;;;;;;;;3.70;1.00;;;;;;4992989;28;19945;-79
2023/11/29 11:52:23;;;;;;;;;;;3.50;1.00;;;;;;5013803;28;19960;-79
2023/11/29 12:00:41;;;;;;;;;;;3.80;1.00;;;;;;5019018;28;19920;-79
2023/11/29 12:03:07;;;;;;;;;;;3.80;1.00;;;;;;5032471;28;19925;-79
2023/11/29 12:08:37;;;;;;;;;;;4.00;1.00;;;;;;5000750;28;19916;-79
2023/11/29 12:11:18;;;;;;;;;;;4.20;1.00;;;;;;5013675;28;19948;-79
2023/11/29 12:13:47;;;;;;;;;;;4.10;1.00;;;;;;5015995;28;20361;-79
2023/11/29 12:16:41;;;;;;;;;;;4.20;1.00;;;;;;5017568;28;20008;-79
2023/11/29 12:22:11;;;;;;;;;;;3.90;1.00;;;;;;5001964;28;20040;-78
2023/11/29 12:27:40;;;;;;;;;;;3.90;1.00;;;;;;5037031;28;19955;-78
2023/11/29 12:30:07;;;;;;;;;;;4.10;1.00;;;;;;5036766;28;20364;-78
2023/11/29 12:35:35;;;;;;;;;;;4.60;1.00;;;;;;5016577;28;20304;-72
2023/11/29 12:38:01;;;;;;;;;;;4.70;1.00;;;;;;5017696;28;19914;-72
2023/11/29 12:40:26;;;;;;;;;;;4.90;1.00;;;;;;5021202;28;19922;-74
2023/11/29 12:42:54;;;;;;;;;;;5.20;1.00;;;;;;4999691;28;19922;-71
2023/11/29 12:45:20;;;;;;;;;;;5.00;1.00;;;;;;5015763;28;19917;-71
2023/11/29 12:47:46;;;;;;;;;;;5.10;1.00;;;;;;5016348;28;19914;-71
2023/11/29 12:50:11;;;;;;;;;;;5.20;1.00;;;;;;5028652;28;19924;-78
2023/11/29 12:52:41;;;;;;;;;;;5.20;1.00;;;;;;5004768;28;19917;-78
2023/11/29 12:55:35;;;;;;;;;;;5.00;1.00;;;;;;5006164;28;19977;-78
2023/11/29 12:58:06;;;;;;;;;;;5.00;1.00;;;;;;5016632;28;20040;-79
2023/11/29 13:00:44;;;;;;;;;;;4.80;1.00;;;;;;5042250;28;20957;-76
2023/11/29 13:05:55;;;;;;;;;;;4.70;1.00;;;;;;5017053;28;19944;-75
2023/11/29 13:08:21;;;;;;;;;;;4.50;1.00;;;;;;5016237;28;20308;-75
2023/11/29 13:10:46;;;;;;;;;;;4.60;1.00;;;;;;5012820;28;19936;-72
2023/11/29 13:13:35;;;;;;;;;;;4.90;1.00;;;;;;5015707;28;19950;-71
2023/11/29 13:16:01;;;;;;;;;;;;;;;;;;5015863;28;19909;-71
2023/11/29 13:18:27;;;;;;;;;;;5.00;1.00;;;;;;5014977;28;19921;-71
2023/11/29 13:20:53;;;;;;;;;;;;;;;;;;5020298;28;19920;-71
2023/11/29 13:23:18;;;;;;;;;;;5.30;1.00;;;;;;5030645;28;19998;-72
2023/11/29 13:25:44;;;;;;;;;;;5.20;1.00;;;;;;5023266;28;19917;-71
2023/11/29 13:28:10;;;;;;;;;;;5.20;1.00;;;;;;5014154;28;19920;-72
2023/11/29 13:30:36;;;;;;;;;;;;;;;;;;5015402;28;20004;-71
2023/11/29 13:33:01;;;;;;;;;;;5.20;1.00;;;;;;5015968;28;20288;-72
2023/11/29 13:35:27;;;;;;;;;;;5.10;1.00;;;;;;5015864;28;19914;-72
2023/11/29 13:37:53;;;;;;;;;;;4.80;1.00;;;;;;5017787;28;19913;-72
2023/11/29 13:40:23;;;;;;;;;;;4.70;1.00;;;;;;5023658;28;19913;-72
2023/11/29 13:42:49;;;;;;;;;;;4.90;1.00;;;;;;5005815;28;20012;-72
2023/11/29 13:45:15;;;;;;;;;;;4.70;1.00;;;;;;5022432;28;20020;-72
2023/11/29 13:47:40;;;;;;;;;;;4.90;1.00;;;;;;5017401;28;19914;-72
2023/11/29 13:50:11;;;;;;;;;;;5.00;1.00;;;;;;5022065;28;19918;-78
2023/11/29 13:55:53;;;;;;;;;;;5.20;1.00;;;;;;5015438;28;19918;-78
2023/11/29 13:58:47;;;;;;;;;;;5.20;1.00;;;;;;5013870;28;19913;-78
2023/11/29 14:01:18;;;;;;;;;;;5.30;1.00;;;;;;5015517;28;19909;-78
2023/11/29 14:03:44;;;;;;;;;;;5.20;1.00;;;;;;5015552;28;20512;-78
2023/11/29 14:06:11;;;;;;;;;;;;;;;;;;5015134;28;19957;-72
2023/11/29 14:08:47;;;;;;;;;;;5.40;1.00;;;;;;5013714;28;20015;-71
2023/11/29 14:11:13;;;;;;;;;;;;;;;;;;5014751;28;19916;-71
2023/11/29 14:13:39;;;;;;;;;;;5.20;1.00;;;;;;5014609;28;19909;-71
2023/11/29 14:16:05;;;;;;;;;;;4.90;1.00;;;;;;5029912;28;19952;-71
2023/11/29 14:18:31;;;;;;;;;;;4.90;1.00;;;;;;5013913;28;19914;-72
2023/11/29 14:26:44;;;;;;;;;;;4.70;1.00;;;;;;5027451;28;20427;-78
2023/11/29 14:29:10;;;;;;;;;;;4.70;1.00;;;;;;5023829;28;19913;-78
2023/11/29 14:31:47;;;;;;;;;;;4.60;1.00;;;;;;5016891;28;20008;-77
2023/11/29 14:34:33;;;;;;;;;;;4.60;1.00;;;;;;4994425;28;20428;-78
2023/11/29 14:40:03;;;;;;;;;;;4.30;1.00;;;;;;5004237;28;19916;-78
2023/11/29 14:45:32;;;;;;;;;;;4.00;1.00;;;;;;5002723;28;20054;-78
2023/11/29 14:50:42;;;;;;;;;;;;;;;;;;5015337;28;20324;-71
2023/11/29 14:53:09;;;;;;;;;;;;;;;;;;5012098;28;19917;-71
2023/11/29 14:55:41;;;;;;;;;;;3.70;1.00;;;;;;5013427;28;19909;-74
2023/11/29 14:58:08;;;;;;;;;;;;;;;;;;5013792;28;19917;-72
2023/11/29 15:00:34;;;;;;;;;;;;;;;;;;5015867;28;20285;-71
2023/11/29 15:03:00;;;;;;;;;;;3.70;1.00;;;;;;5014001;28;19924;-71
2023/11/29 15:05:26;;;;;;;;;;;3.60;1.00;;;;;;5013841;28;19917;-71
2023/11/29 15:07:52;;;;;;;;;;;;;;;;;;5016931;28;19921;-71
2023/11/29 15:10:18;;;;;;;;;;;3.60;1.00;;;;;;5013547;28;19963;-71
2023/11/29 15:12:43;;;;;;;;;;;3.60;1.00;;;;;;5018507;28;19917;-71
2023/11/29 15:15:09;;;;;;;;;;;;;;;;;;5012761;28;19913;-71
2023/11/29 15:17:35;;;;;;;;;;;3.40;1.00;;;;;;5013637;28;19948;-71
2023/11/29 15:20:04;;;;;;;;;;;3.30;1.00;;;;;;5017456;28;19932;-71
2023/11/29 15:22:30;;;;;;;;;;;3.30;1.00;;;;;;5014294;28;20063;-71
2023/11/29 15:24:57;;;;;;;;;;;3.20;1.00;;;;;;5009521;28;20008;-71
2023/11/29 15:27:24;;;;;;;;;;;3.20;1.00;;;;;;5014122;28;20246;-71
2023/11/29 15:29:53;;;;;;;;;;;3.10;1.00;;;;;;5010851;28;19914;-71
2023/11/29 15:32:19;;;;;;;;;;;3.00;1.00;;;;;;5013100;28;19913;-71
2023/11/29 15:34:45;;;;;;;;;;;2.90;1.00;;;;;;5010609;28;19936;-71
2023/11/29 15:37:17;;;;;;;;;;;2.80;1.00;;;;;;5013805;28;20065;-74
2023/11/29 15:39:53;;;;;;;;;;;2.70;1.00;;;;;;5013260;28;19914;-75
2023/11/29 15:45:04;;;;;;;;;;;2.80;1.00;;;;;;5006461;28;19917;-74
2023/11/29 15:47:29;;;;;;;;;;;2.80;1.00;;;;;;5014451;28;20349;-76
2023/11/29 15:49:56;;;;;;;;;;;;;;;;;;5020778;28;20272;-76
2023/11/29 15:52:21;;;;;;;;;;;2.70;1.00;;;;;;5016564;28;19914;-71
2023/11/29 15:54:47;;;;;;;;;;;2.70;1.00;;;;;;5016724;28;19913;-71
2023/11/29 15:57:13;;;;;;;;;;;2.60;1.00;;;;;;5001348;28;19909;-71
2023/11/29 15:59:38;;;;;;;;;;;2.60;1.00;;;;;;5016273;28;19968;-71
2023/11/29 16:02:04;;;;;;;;;;;;;;;;;;5012498;28;19926;-71
2023/11/29 16:04:30;;;;;;;;;;;2.50;1.00;;;;;;5012853;28;19917;-71
2023/11/29 16:10:06;;;;;;;;;;;2.40;1.00;;;;;;5006596;28;19921;-76
2023/11/29 16:12:41;;;;;;;;;;;2.40;1.00;;;;;;5017060;28;19968;-76
2023/11/29 16:15:41;;;;;;;;;;;2.40;1.00;;;;;;5017284;28;19924;-77
2023/11/29 16:18:11;;;;;;;;;;;2.30;1.00;;;;;;5017515;28;19914;-78
2023/11/29 16:20:37;;;;;;;;;;;;;;;;;;5028597;28;20055;-73
2023/11/29 16:23:05;;;;;;;;;;;;;;;;;;5013553;28;19918;-72
2023/11/29 16:25:31;;;;;;;;;;;2.40;1.00;;;;;;5013450;28;19924;-72
2023/11/29 16:27:56;;;;;;;;;;;2.40;1.00;;;;;;5017030;28;20004;-72
2023/11/29 16:30:22;;;;;;;;;;;2.40;1.00;;;;;;5020115;28;19917;-72
2023/11/29 16:32:51;;;;;;;;;;;2.40;1.00;;;;;;5016253;28;19964;-71
2023/11/29 16:35:18;;;;;;;;;;;;;;;;;;5021047;28;19924;-71
2023/11/29 16:37:43;;;;;;;;;;;2.40;1.00;;;;;;5013847;28;19913;-74
2023/11/29 16:40:11;;;;;;;;;;;2.50;1.00;;;;;;5015339;28;20013;-74
2023/11/29 16:42:41;;;;;;;;;;;2.50;1.00;;;;;;5003284;28;19924;-74
2023/11/29 16:45:07;;;;;;;;;;;2.50;1.00;;;;;;5022877;28;20369;-73
2023/11/29 16:47:33;;;;;;;;;;;2.40;1.00;;;;;;5021596;28;19913;-74
2023/11/29 16:50:11;;;;;;;;;;;2.50;1.00;;;;;;5016566;28;19925;-75
2023/11/29 16:52:37;;;;;;;;;;;2.50;1.00;;;;;;5026586;28;19917;-76
2023/11/29 16:55:03;;;;;;;;;;;2.50;1.00;;;;;;5017321;28;20281;-73
2023/11/29 17:00:43;;;;;;;;;;;2.40;1.00;;;;;;5009768;28;19921;-75
2023/11/29 17:03:14;;;;;;;;;;;;;;;;;;5015891;28;19913;-75
2023/11/29 17:08:30;;;;;;;;;;;2.50;1.00;;;;;;5017373;28;19963;-73
2023/11/29 17:11:07;;;;;;;;;;;2.50;1.00;;;;;;5018014;28;19917;-74
2023/11/29 17:13:36;;;;;;;;;;;2.40;1.00;;;;;;5026310;28;20357;-73
2023/11/29 17:16:02;;;;;;;;;;;;;;;;;;5020603;28;19940;-73
2023/11/29 17:18:27;;;;;;;;;;;2.40;1.00;;;;;;5020795;28;19925;-72
2023/11/29 17:20:53;;;;;;;;;;;2.40;1.00;;;;;;5016025;28;19914;-72
2023/11/29 17:26:30;;;;;;;;;;;2.40;1.00;;;;;;5016542;28;19932;-86
2023/11/29 17:28:56;;;;;;;;;;;;;;;;;;4994375;28;20133;-74
2023/11/29 17:31:47;;;;;;;;;;;2.50;1.00;;;;;;5013722;28;20001;-82
2023/11/29 17:37:18;;;;;;;;;;;2.50;1.00;;;;;;5009749;28;19963;-82
2023/11/29 17:45:50;;;;;;;;;;;;;;;;;;5015852;28;20395;-82
2023/11/29 17:48:31;;;;;;;;;;;2.70;1.00;;;;;;5019622;28;20299;-81
2023/11/29 17:57:02;;;;;;;;;;;2.60;1.00;;;;;;5010724;28;19920;-78
2023/11/29 18:02:26;;;;;;;;;;;2.60;1.00;;;;;;5010484;28;20652;-75
2023/11/29 18:04:53;;;;;;;;;;;2.50;1.00;;;;;;5014567;28;20412;-75
2023/11/29 18:07:19;;;;;;;;;;;2.50;1.00;;;;;;5019919;28;19917;-75
2023/11/29 18:09:48;;;;;;;;;;;2.40;1.00;;;;;;5015323;28;19913;-75
2023/11/29 18:12:13;;;;;;;;;;;2.40;1.00;;;;;;5014994;28;19913;-75
2023/11/29 18:14:54;;;;;;;;;;;2.40;1.00;;;;;;5015184;28;20004;-75
2023/11/29 18:17:19;;;;;;;;;;;2.40;1.00;;;;;;5017507;28;19913;-73
2023/11/29 18:19:45;;;;;;;;;;;2.30;1.00;;;;;;5014998;28;19921;-73
2023/11/29 18:22:10;;;;;;;;;;;2.40;1.00;;;;;;5015485;28;19923;-72
2023/11/29 18:24:36;;;;;;;;;;;2.40;1.00;;;;;;5014752;28;19913;-71
2023/11/29 18:27:02;;;;;;;;;;;2.50;1.00;;;;;;5015025;28;19941;-71
2023/11/29 18:29:28;;;;;;;;;;;2.50;1.00;;;;;;5019113;28;19917;-71
2023/11/29 18:31:54;;;;;;;;;;;2.50;1.00;;;;;;5008342;28;19914;-71
2023/11/29 18:34:19;;;;;;;;;;;2.50;1.00;;;;;;5008821;28;19914;-71
2023/11/29 18:36:45;;;;;;;;;;;2.50;1.00;;;;;;5009254;28;19913;-71
2023/11/29 18:39:11;;;;;;;;;;;;;;;;;;5019153;28;19913;-71
2023/11/29 18:41:37;;;;;;;;;;;2.60;1.00;;;;;;5013990;28;19958;-71